Time,TemperatureF,DewpointF,PressureIn,WindDirection,WindDirectionDegrees,WindSpeedMPH,WindSpeedGustMPH,Humidity,HourlyPrecipIn,Conditions,Clouds,dailyrainin,SoftwareType,DateUTC
2013-04-11 00:04:00,41.4,39.8,29.06,NNE,22,0.0,0.0,94,0.05,,OVC038,0.00,VWS V14.01,2013-04-11 07:04:00,
2013-04-11 00:09:00,41.2,39.6,29.06,ENE,68,0.9,0.9,94,0.05,,OVC038,0.00,VWS V14.01,2013-04-11 07:09:00,
2013-04-11 00:14:00,41.2,39.9,29.06,North,0,3.8,3.8,95,0.05,,OVC038,0.00,VWS V14.01,2013-04-11 07:14:00,
2013-04-11 00:19:00,41.2,39.9,29.06,North,0,3.6,3.6,95,0.05,,OVC038,0.00,VWS V14.01,2013-04-11 07:19:00,
2013-04-11 00:24:00,41.2,39.9,29.06,North,0,2.9,2.9,95,0.05,,OVC038,0.00,VWS V14.01,2013-04-11 07:24:00,
2013-04-11 00:29:00,41.2,39.9,29.06,NNW,338,2.9,2.9,95,0.05,,OVC038,0.00,VWS V14.01,2013-04-11 07:29:00,
2013-04-11 00:34:00,41.2,39.6,29.06,NE,45,3.1,3.1,94,0.05,,OVC038,0.00,VWS V14.01,2013-04-11 07:34:00,
2013-04-11 00:39:00,41.0,39.7,29.06,North,0,3.1,3.1,95,0.05,,OVC038,0.00,VWS V14.01,2013-04-11 07:39:00,
2013-04-11 00:44:00,41.0,39.7,29.06,NNW,338,2.9,2.9,95,0.05,,OVC038,0.00,VWS V14.01,2013-04-11 07:44:00,
2013-04-11 00:49:00,41.0,39.7,29.06,North,0,3.1,3.1,95,0.05,,OVC038,0.00,VWS V14.01,2013-04-11 07:49:00,
2013-04-11 00:54:00,41.0,40.0,29.06,North,0,2.7,2.7,96,0.05,,OVC038,0.00,VWS V14.01,2013-04-11 07:54:00,
2013-04-11 00:59:00,41.0,40.0,29.06,NNW,338,2.5,2.5,96,0.05,,OVC038,0.00,VWS V14.01,2013-04-11 07:59:00,
2013-04-11 01:04:00,41.0,40.0,29.06,WSW,248,0.0,0.0,96,0.04,,OVC036,0.04,VWS V14.01,2013-04-11 08:04:00,
2013-04-11 01:09:00,41.0,40.0,29.09,SSE,158,0.0,0.0,96,0.04,,OVC036,0.04,VWS V14.01,2013-04-11 08:09:00,
2013-04-11 01:14:00,40.8,39.8,29.09,North,0,0.0,0.0,96,0.04,,OVC036,0.04,VWS V14.01,2013-04-11 08:14:00,
2013-04-11 01:19:00,40.8,39.8,29.09,SE,135,1.1,1.1,96,0.04,,OVC036,0.04,VWS V14.01,2013-04-11 08:19:00,
2013-04-11 01:24:00,40.8,39.8,29.06,East,90,1.6,1.6,96,0.04,,OVC036,0.04,VWS V14.01,2013-04-11 08:24:00,
2013-04-11 01:29:00,41.0,40.0,29.06,WNW,292,1.1,1.1,96,0.04,,OVC036,0.04,VWS V14.01,2013-04-11 08:29:00,
2013-04-11 01:34:00,40.8,39.8,29.06,NNW,338,2.7,2.7,96,0.04,,OVC036,0.04,VWS V14.01,2013-04-11 08:34:00,
2013-04-11 01:39:00,40.8,39.8,29.06,West,270,2.0,2.0,96,0.04,,OVC036,0.04,VWS V14.01,2013-04-11 08:39:00,
2013-04-11 01:44:00,40.8,39.8,29.06,East,90,1.3,1.3,96,0.04,,OVC036,0.04,VWS V14.01,2013-04-11 08:44:00,
2013-04-11 01:49:00,40.8,39.8,29.06,NE,45,2.0,2.0,96,0.04,,OVC036,0.04,VWS V14.01,2013-04-11 08:49:00,
2013-04-11 01:54:00,40.6,39.6,29.06,North,0,0.9,0.9,96,0.04,,OVC036,0.04,VWS V14.01,2013-04-11 08:54:00,
2013-04-11 01:59:00,40.6,39.9,29.06,NW,315,0.0,0.0,97,0.04,,OVC036,0.04,VWS V14.01,2013-04-11 08:59:00,
2013-04-11 02:04:00,40.6,39.9,29.06,NW,315,1.1,1.1,97,0.04,,BKN036,0.04,VWS V14.01,2013-04-11 09:04:00,
2013-04-11 02:09:00,40.6,39.9,29.06,NE,45,1.6,1.6,97,0.04,,BKN036,0.04,VWS V14.01,2013-04-11 09:09:00,
2013-04-11 02:14:00,40.6,39.9,29.06,NE,45,0.0,0.0,97,0.04,,BKN036,0.04,VWS V14.01,2013-04-11 09:14:00,
2013-04-11 02:19:00,40.6,39.9,29.06,NE,45,0.0,0.0,97,0.04,,BKN036,0.04,VWS V14.01,2013-04-11 09:19:00,
2013-04-11 02:24:00,40.6,39.9,29.06,ENE,68,0.0,0.0,97,0.04,,BKN036,0.04,VWS V14.01,2013-04-11 09:24:00,
2013-04-11 02:29:00,40.6,39.9,29.06,SSE,158,0.0,0.0,97,0.04,,BKN036,0.04,VWS V14.01,2013-04-11 09:29:00,
2013-04-11 02:34:00,40.6,39.9,29.06,ESE,112,0.0,0.0,97,0.00,,BKN036,0.04,VWS V14.01,2013-04-11 09:34:00,
2013-04-11 02:39:00,40.6,39.9,29.06,South,180,0.0,0.0,97,0.00,,BKN036,0.04,VWS V14.01,2013-04-11 09:39:00,
2013-04-11 02:44:00,40.6,39.9,29.06,ESE,112,1.1,1.1,97,0.00,,BKN036,0.04,VWS V14.01,2013-04-11 09:44:00,
2013-04-11 02:49:00,40.6,39.9,29.06,NE,45,1.3,1.3,97,0.04,,BKN036,0.08,VWS V14.01,2013-04-11 09:49:00,
2013-04-11 02:54:00,40.6,40.1,29.03,SSW,202,0.0,0.0,98,0.04,,BKN036,0.08,VWS V14.01,2013-04-11 09:54:00,
2013-04-11 02:59:00,40.6,40.1,29.03,East,90,0.0,0.0,98,0.04,,BKN036,0.08,VWS V14.01,2013-04-11 09:59:00,
2013-04-11 03:04:00,40.6,40.1,29.03,SE,135,0.0,0.0,98,0.04,,BKN035,0.08,VWS V14.01,2013-04-11 10:04:00,
2013-04-11 03:09:00,40.6,40.1,29.03,NNE,22,2.0,2.0,98,0.04,,BKN035,0.08,VWS V14.01,2013-04-11 10:09:00,
2013-04-11 03:14:00,40.6,40.1,29.03,NE,45,1.3,1.3,98,0.04,,BKN035,0.08,VWS V14.01,2013-04-11 10:14:00,
2013-04-11 03:19:00,40.6,40.1,29.03,NNE,22,1.3,1.3,98,0.04,,BKN035,0.08,VWS V14.01,2013-04-11 10:19:00,
2013-04-11 03:24:00,40.6,40.1,29.03,ENE,68,0.0,0.0,98,0.04,,BKN035,0.08,VWS V14.01,2013-04-11 10:24:00,
2013-04-11 03:29:00,40.6,40.1,29.03,ESE,112,0.9,0.9,98,0.04,,BKN035,0.08,VWS V14.01,2013-04-11 10:29:00,
2013-04-11 03:34:00,40.6,40.1,29.03,NW,315,1.1,1.1,98,0.04,,BKN036,0.08,VWS V14.01,2013-04-11 10:34:00,
2013-04-11 03:39:00,40.6,40.1,29.03,NNE,22,2.5,2.5,98,0.04,,BKN036,0.08,VWS V14.01,2013-04-11 10:39:00,
2013-04-11 03:44:00,40.6,40.1,29.03,NE,45,1.1,1.1,98,0.04,,BKN036,0.08,VWS V14.01,2013-04-11 10:44:00,
2013-04-11 03:49:00,40.5,39.9,29.03,ENE,68,1.3,1.3,98,0.04,,BKN036,0.08,VWS V14.01,2013-04-11 10:49:00,
2013-04-11 03:54:00,40.5,39.9,29.03,SSE,158,1.1,1.1,98,0.04,,BKN036,0.08,VWS V14.01,2013-04-11 10:54:00,
2013-04-11 03:59:00,40.5,39.9,29.03,WNW,292,1.6,1.6,98,0.04,,BKN036,0.08,VWS V14.01,2013-04-11 10:59:00,
2013-04-11 04:04:00,40.5,39.9,29.03,NE,45,0.0,0.0,98,0.00,,OVC012,0.08,VWS V14.01,2013-04-11 11:04:00,
2013-04-11 04:09:00,40.5,39.9,29.03,North,0,1.6,1.6,98,0.00,,OVC012,0.08,VWS V14.01,2013-04-11 11:09:00,
2013-04-11 04:14:00,40.3,39.8,29.03,WNW,292,2.0,2.0,98,0.00,,OVC012,0.08,VWS V14.01,2013-04-11 11:14:00,
2013-04-11 04:19:00,40.3,39.8,29.03,North,0,2.7,2.7,98,0.00,,OVC012,0.08,VWS V14.01,2013-04-11 11:19:00,
2013-04-11 04:24:00,40.5,39.9,29.03,NE,45,1.6,1.6,98,0.00,,OVC012,0.08,VWS V14.01,2013-04-11 11:24:00,
2013-04-11 04:29:00,40.5,39.9,29.03,ENE,68,1.3,1.3,98,0.00,,OVC012,0.08,VWS V14.01,2013-04-11 11:29:00,
2013-04-11 04:34:00,40.5,39.9,29.03,East,90,0.0,0.0,98,0.00,,OVC012,0.08,VWS V14.01,2013-04-11 11:34:00,
2013-04-11 04:39:00,40.5,39.9,29.06,SSE,158,0.0,0.0,98,0.00,,OVC012,0.08,VWS V14.01,2013-04-11 11:39:00,
2013-04-11 04:44:00,40.5,39.9,29.06,SSE,158,0.0,0.0,98,0.04,,OVC012,0.12,VWS V14.01,2013-04-11 11:44:00,
2013-04-11 04:49:00,40.5,39.9,29.06,SSE,158,0.0,0.0,98,0.04,,OVC012,0.12,VWS V14.01,2013-04-11 11:49:00,
2013-04-11 04:54:00,40.5,39.9,29.06,SSE,158,0.0,0.0,98,0.04,,OVC012,0.12,VWS V14.01,2013-04-11 11:54:00,
2013-04-11 04:59:00,40.3,39.8,29.06,WNW,292,1.6,1.6,98,0.04,,OVC012,0.12,VWS V14.01,2013-04-11 11:59:00,
2013-04-11 05:04:00,40.3,39.8,29.06,SSE,158,1.6,1.6,98,0.04,,CLR,0.12,VWS V14.01,2013-04-11 12:04:00,
2013-04-11 05:09:00,40.3,39.8,29.06,SSE,158,0.0,0.0,98,0.04,,CLR,0.12,VWS V14.01,2013-04-11 12:09:00,
2013-04-11 05:14:00,40.3,39.8,29.06,SSE,158,0.0,0.0,98,0.04,,CLR,0.12,VWS V14.01,2013-04-11 12:14:00,
2013-04-11 05:19:00,40.3,39.8,29.06,SSE,158,0.0,0.0,98,0.04,,CLR,0.12,VWS V14.01,2013-04-11 12:19:00,
2013-04-11 05:24:00,40.3,39.8,29.06,NE,45,0.0,0.0,98,0.04,,CLR,0.12,VWS V14.01,2013-04-11 12:24:00,
2013-04-11 05:29:00,40.3,39.8,29.06,ESE,112,0.0,0.0,98,0.04,,CLR,0.12,VWS V14.01,2013-04-11 12:29:00,
2013-04-11 05:34:00,40.3,39.8,29.06,WNW,292,0.0,0.0,98,0.04,,CLR,0.12,VWS V14.01,2013-04-11 12:34:00,
2013-04-11 05:39:00,40.3,39.8,29.06,ESE,112,3.4,3.4,98,0.04,,CLR,0.12,VWS V14.01,2013-04-11 12:39:00,
2013-04-11 05:43:00,40.3,39.8,29.06,South,180,0.0,0.0,98,0.04,,CLR,0.12,VWS V14.01,2013-04-11 12:43:00,
2013-04-11 05:48:00,40.3,39.8,29.06,West,270,0.0,0.0,98,0.04,,CLR,0.12,VWS V14.01,2013-04-11 12:48:00,
2013-04-11 05:53:00,40.5,39.9,29.06,South,180,0.9,0.9,98,0.04,,CLR,0.12,VWS V14.01,2013-04-11 12:53:00,
2013-04-11 05:58:00,40.5,39.9,29.06,WNW,292,0.0,0.0,98,0.04,,CLR,0.12,VWS V14.01,2013-04-11 12:58:00,
2013-04-11 06:03:00,40.5,39.9,29.06,West,270,0.0,0.0,98,0.00,,OVC050,0.12,VWS V14.01,2013-04-11 13:03:00,
2013-04-11 06:08:00,40.5,39.9,29.06,North,0,2.2,2.2,98,0.04,,OVC050,0.16,VWS V14.01,2013-04-11 13:08:00,
2013-04-11 06:13:00,40.3,39.8,29.06,SSW,202,0.0,0.0,98,0.04,,OVC050,0.16,VWS V14.01,2013-04-11 13:13:00,
2013-04-11 06:18:00,40.3,39.8,29.06,East,90,0.0,0.0,98,0.04,,OVC050,0.16,VWS V14.01,2013-04-11 13:18:00,
2013-04-11 06:23:00,40.3,39.8,29.06,ENE,68,0.0,0.0,98,0.04,,OVC050,0.16,VWS V14.01,2013-04-11 13:23:00,
2013-04-11 06:28:00,40.3,39.8,29.06,NE,45,0.0,0.0,98,0.04,,OVC050,0.16,VWS V14.01,2013-04-11 13:28:00,
2013-04-11 06:33:00,40.3,39.8,29.06,NNE,22,0.0,0.0,98,0.04,,OVC050,0.16,VWS V14.01,2013-04-11 13:33:00,
2013-04-11 06:38:00,40.3,39.8,29.06,South,180,0.0,0.0,98,0.04,,OVC050,0.16,VWS V14.01,2013-04-11 13:38:00,
2013-04-11 06:43:00,40.3,39.8,29.06,SSW,202,0.0,0.0,98,0.04,,OVC050,0.16,VWS V14.01,2013-04-11 13:43:00,
2013-04-11 06:48:00,40.3,39.8,29.06,East,90,0.0,0.0,98,0.04,,OVC050,0.16,VWS V14.01,2013-04-11 13:48:00,
2013-04-11 06:53:00,40.3,39.8,29.06,East,90,0.0,0.0,98,0.04,,OVC050,0.16,VWS V14.01,2013-04-11 13:53:00,
2013-04-11 06:58:00,40.3,39.8,29.06,SSW,202,0.0,0.0,98,0.04,,OVC050,0.16,VWS V14.01,2013-04-11 13:58:00,
2013-04-11 07:04:00,40.3,39.8,29.06,NNE,22,1.3,1.3,98,0.04,,OVC049,0.16,VWS V14.01,2013-04-11 14:04:00,
2013-04-11 07:09:00,40.5,39.9,29.06,NE,45,0.0,0.0,98,0.04,,OVC049,0.16,VWS V14.01,2013-04-11 14:09:00,
2013-04-11 07:13:00,40.5,39.9,29.06,WSW,248,0.0,0.0,98,0.04,,OVC049,0.16,VWS V14.01,2013-04-11 14:13:00,
2013-04-11 07:18:00,40.5,39.9,29.06,NNW,338,0.9,0.9,98,0.04,,OVC049,0.16,VWS V14.01,2013-04-11 14:18:00,
2013-04-11 07:23:00,40.6,40.1,29.06,North,0,0.0,0.0,98,0.04,,OVC049,0.16,VWS V14.01,2013-04-11 14:23:00,
2013-04-11 07:28:00,40.6,40.1,29.06,SSW,202,0.0,0.0,98,0.04,,OVC049,0.16,VWS V14.01,2013-04-11 14:28:00,
2013-04-11 07:33:00,40.8,40.3,29.06,SSW,202,0.0,0.0,98,0.00,,OVC049,0.16,VWS V14.01,2013-04-11 14:33:00,
2013-04-11 07:39:00,40.8,40.3,29.06,SE,135,1.3,1.3,98,0.00,,OVC049,0.16,VWS V14.01,2013-04-11 14:39:00,
2013-04-11 07:43:00,40.8,40.3,29.06,NNE,22,1.3,1.3,98,0.00,,OVC049,0.16,VWS V14.01,2013-04-11 14:43:00,
2013-04-11 07:48:00,41.0,40.5,29.06,NNW,338,1.6,1.6,98,0.00,,OVC049,0.16,VWS V14.01,2013-04-11 14:48:00,
2013-04-11 07:53:00,41.2,40.7,29.06,NE,45,2.5,2.5,98,0.00,,OVC049,0.16,VWS V14.01,2013-04-11 14:53:00,
2013-04-11 07:58:00,41.2,40.7,29.06,NE,45,2.7,2.7,98,0.00,,OVC049,0.16,VWS V14.01,2013-04-11 14:58:00,
2013-04-11 08:03:00,41.5,41.0,29.06,NNE,22,1.6,1.6,98,0.00,,,0.16,VWS V14.01,2013-04-11 15:03:00,
2013-04-11 08:08:00,41.5,41.0,29.06,NE,45,1.3,1.3,98,0.00,,,0.16,VWS V14.01,2013-04-11 15:08:00,
2013-04-11 08:13:00,41.7,41.2,29.06,ENE,68,1.3,1.3,98,0.00,,,0.16,VWS V14.01,2013-04-11 15:13:00,
2013-04-11 08:18:00,41.7,40.9,29.06,SE,135,7.6,7.6,97,0.00,,,0.16,VWS V14.01,2013-04-11 15:18:00,
2013-04-11 08:23:00,42.1,41.3,29.06,SSW,202,2.0,2.0,97,0.00,,,0.16,VWS V14.01,2013-04-11 15:23:00,
2013-04-11 08:28:00,42.1,41.0,29.06,NW,315,2.0,2.0,96,0.00,,,0.16,VWS V14.01,2013-04-11 15:28:00,
2013-04-11 08:33:00,42.3,41.2,29.06,NW,315,2.0,2.0,96,0.00,,,0.16,VWS V14.01,2013-04-11 15:33:00,
2013-04-11 08:39:00,42.4,41.4,29.06,West,270,0.0,0.0,96,0.00,,,0.16,VWS V14.01,2013-04-11 15:39:00,
2013-04-11 08:44:00,42.4,41.4,29.06,WNW,292,2.0,2.0,96,0.00,,,0.16,VWS V14.01,2013-04-11 15:44:00,
2013-04-11 08:49:00,42.4,41.4,29.06,NNW,338,2.9,2.9,96,0.00,,,0.16,VWS V14.01,2013-04-11 15:49:00,
2013-04-11 08:54:00,42.4,41.4,29.06,SSE,158,1.1,1.1,96,0.00,,,0.16,VWS V14.01,2013-04-11 15:54:00,
2013-04-11 08:59:00,42.8,41.5,29.06,NNW,338,1.3,1.3,95,0.00,,,0.16,VWS V14.01,2013-04-11 15:59:00,
2013-04-11 09:04:00,42.8,41.5,29.06,North,0,2.0,2.0,95,0.00,,,0.16,VWS V14.01,2013-04-11 16:04:00,
2013-04-11 09:09:00,43.0,41.7,29.06,NNW,338,2.9,2.9,95,0.00,,,0.16,VWS V14.01,2013-04-11 16:09:00,
2013-04-11 09:13:00,43.0,41.7,29.06,NNW,338,3.1,3.1,95,0.04,,,0.20,VWS V14.01,2013-04-11 16:13:00,
2013-04-11 09:18:00,43.0,41.4,29.06,WSW,248,2.9,2.9,94,0.04,,,0.20,VWS V14.01,2013-04-11 16:18:00,
2013-04-11 09:23:00,43.0,41.4,29.06,WNW,292,2.7,2.7,94,0.04,,,0.20,VWS V14.01,2013-04-11 16:23:00,
2013-04-11 09:28:00,43.3,41.7,29.06,West,270,3.4,3.4,94,0.04,,,0.20,VWS V14.01,2013-04-11 16:28:00,
2013-04-11 09:33:00,44.2,42.6,29.06,NNW,338,1.6,1.6,94,0.04,,,0.20,VWS V14.01,2013-04-11 16:33:00,
2013-04-11 09:38:00,44.8,43.2,29.06,WNW,292,0.0,0.0,94,0.04,,,0.20,VWS V14.01,2013-04-11 16:38:00,
2013-04-11 09:43:00,45.9,44.0,29.06,South,180,1.3,1.3,93,0.04,,,0.20,VWS V14.01,2013-04-11 16:43:00,
2013-04-11 09:48:00,46.2,44.6,29.06,South,180,1.3,1.3,94,0.04,,,0.20,VWS V14.01,2013-04-11 16:48:00,
2013-04-11 09:53:00,46.2,43.5,29.06,NNW,338,0.9,0.9,90,0.04,,,0.20,VWS V14.01,2013-04-11 16:53:00,
2013-04-11 09:58:00,46.0,42.4,29.06,ESE,112,2.2,2.2,87,0.04,,,0.20,VWS V14.01,2013-04-11 16:58:00,
2013-04-11 10:03:00,45.7,41.7,29.06,North,0,1.6,1.6,86,0.00,,BKN044,0.20,VWS V14.01,2013-04-11 17:03:00,
2013-04-11 10:08:00,45.9,42.2,29.06,North,0,1.3,1.3,87,0.00,,BKN044,0.20,VWS V14.01,2013-04-11 17:08:00,
2013-04-11 10:13:00,46.0,42.4,29.06,West,270,3.1,3.1,87,0.00,,BKN044,0.20,VWS V14.01,2013-04-11 17:13:00,
2013-04-11 10:18:00,46.2,42.6,29.06,SSW,202,1.6,1.6,87,0.00,,BKN044,0.20,VWS V14.01,2013-04-11 17:18:00,
2013-04-11 10:23:00,46.2,42.6,29.06,North,0,1.3,1.3,87,0.00,,BKN044,0.20,VWS V14.01,2013-04-11 17:23:00,
2013-04-11 10:28:00,46.0,41.8,29.06,SSE,158,2.9,2.9,85,0.00,,BKN044,0.20,VWS V14.01,2013-04-11 17:28:00,
2013-04-11 10:33:00,46.4,42.5,29.06,NNE,22,0.9,0.9,86,0.00,,BKN044,0.20,VWS V14.01,2013-04-11 17:33:00,
2013-04-11 10:38:00,46.6,42.0,29.06,NW,315,3.6,3.6,84,0.00,,BKN044,0.20,VWS V14.01,2013-04-11 17:38:00,
2013-04-11 10:43:00,47.1,41.9,29.06,NE,45,2.0,2.0,82,0.00,,BKN044,0.20,VWS V14.01,2013-04-11 17:43:00,
2013-04-11 10:48:00,47.5,42.9,29.06,NE,45,2.9,2.9,84,0.00,,BKN044,0.20,VWS V14.01,2013-04-11 17:48:00,
2013-04-11 10:53:00,47.1,41.0,29.06,NNW,338,6.9,6.9,79,0.00,,BKN044,0.20,VWS V14.01,2013-04-11 17:53:00,
2013-04-11 10:58:00,46.6,40.4,29.06,West,270,2.9,2.9,79,0.00,,BKN044,0.20,VWS V14.01,2013-04-11 17:58:00,
2013-04-11 11:03:00,46.9,42.0,29.06,West,270,2.0,2.0,83,0.00,,BKN050,0.20,VWS V14.01,2013-04-11 18:03:00,
2013-04-11 11:08:00,46.8,40.9,29.06,WNW,292,3.6,3.6,80,0.00,,BKN050,0.20,VWS V14.01,2013-04-11 18:08:00,
2013-04-11 11:13:00,46.9,42.0,29.06,East,90,1.6,1.6,83,0.00,,BKN050,0.20,VWS V14.01,2013-04-11 18:13:00,
2013-04-11 11:18:00,47.1,42.2,29.06,NNW,338,4.3,4.3,83,0.00,,BKN050,0.20,VWS V14.01,2013-04-11 18:18:00,
2013-04-11 11:23:00,47.1,41.3,29.09,SSE,158,5.4,5.4,80,0.00,,BKN050,0.20,VWS V14.01,2013-04-11 18:23:00,
2013-04-11 11:28:00,47.5,42.3,29.09,WNW,292,3.4,3.4,82,0.00,,BKN050,0.20,VWS V14.01,2013-04-11 18:28:00,
2013-04-11 11:33:00,48.0,43.1,29.09,NE,45,2.0,2.0,83,0.00,,BKN050,0.20,VWS V14.01,2013-04-11 18:33:00,
2013-04-11 11:38:00,48.6,42.7,29.09,WSW,248,3.1,3.1,80,0.00,,BKN050,0.20,VWS V14.01,2013-04-11 18:38:00,
2013-04-11 11:43:00,49.8,44.2,29.09,North,0,2.7,2.7,81,0.00,,BKN050,0.20,VWS V14.01,2013-04-11 18:43:00,
2013-04-11 11:48:00,49.1,41.9,29.09,NNE,22,3.6,3.6,76,0.00,,BKN050,0.20,VWS V14.01,2013-04-11 18:48:00,
2013-04-11 11:53:00,48.6,41.3,29.06,NNE,22,4.3,4.3,76,0.00,,BKN050,0.20,VWS V14.01,2013-04-11 18:53:00,
2013-04-11 11:58:00,48.4,40.8,29.06,NW,315,2.9,2.9,75,0.00,,BKN050,0.20,VWS V14.01,2013-04-11 18:58:00,
2013-04-11 12:03:00,49.1,41.9,29.06,West,270,5.8,5.8,76,0.00,,BKN050,0.20,VWS V14.01,2013-04-11 19:03:00,
2013-04-11 12:08:00,49.6,41.3,29.06,WNW,292,4.9,4.9,73,0.00,,BKN050,0.20,VWS V14.01,2013-04-11 19:08:00,
2013-04-11 12:13:00,49.5,40.8,29.06,SSE,158,4.0,4.0,72,0.00,,BKN050,0.20,VWS V14.01,2013-04-11 19:13:00,
2013-04-11 12:18:00,48.9,39.9,29.06,West,270,5.6,5.6,71,0.00,,BKN050,0.20,VWS V14.01,2013-04-11 19:18:00,
2013-04-11 12:23:00,48.0,39.1,29.09,SE,135,1.3,1.3,71,0.00,,BKN050,0.20,VWS V14.01,2013-04-11 19:23:00,
2013-04-11 12:28:00,47.8,38.5,29.09,WSW,248,3.4,3.4,70,0.00,,BKN050,0.20,VWS V14.01,2013-04-11 19:28:00,
2013-04-11 12:33:00,48.0,39.1,29.09,North,0,2.7,2.7,71,0.00,,BKN050,0.20,VWS V14.01,2013-04-11 19:33:00,
2013-04-11 12:38:00,48.6,40.7,29.09,North,0,1.6,1.6,74,0.00,,BKN050,0.20,VWS V14.01,2013-04-11 19:38:00,
2013-04-11 12:43:00,48.6,40.7,29.09,SE,135,2.7,2.7,74,0.00,,BKN050,0.20,VWS V14.01,2013-04-11 19:43:00,
2013-04-11 12:48:00,48.6,41.3,29.09,NW,315,5.8,5.8,76,0.00,,BKN050,0.20,VWS V14.01,2013-04-11 19:48:00,
2013-04-11 12:53:00,48.7,40.8,29.06,SW,225,2.0,2.0,74,0.00,,BKN050,0.20,VWS V14.01,2013-04-11 19:53:00,
2013-04-11 12:58:00,50.2,42.6,29.06,East,90,5.8,5.8,75,0.00,,BKN050,0.20,VWS V14.01,2013-04-11 19:58:00,
2013-04-11 13:03:00,50.9,43.3,29.06,North,0,2.0,2.0,75,0.00,,-RA,0.20,VWS V14.01,2013-04-11 20:03:00,
2013-04-11 13:08:00,52.0,43.6,29.06,WSW,248,6.3,6.3,73,0.00,,-RA,0.20,VWS V14.01,2013-04-11 20:08:00,
2013-04-11 13:13:00,53.1,43.2,29.06,WNW,292,4.3,4.3,69,0.00,,-RA,0.20,VWS V14.01,2013-04-11 20:13:00,
2013-04-11 13:18:00,53.1,42.8,29.06,North,0,3.4,3.4,68,0.00,,-RA,0.20,VWS V14.01,2013-04-11 20:18:00,
2013-04-11 13:23:00,53.1,42.8,29.09,ENE,68,2.9,2.9,68,0.00,,-RA,0.20,VWS V14.01,2013-04-11 20:23:00,
2013-04-11 13:28:00,54.1,38.8,29.09,SSW,202,7.8,7.8,56,0.00,,-RA,0.20,VWS V14.01,2013-04-11 20:28:00,
2013-04-11 13:33:00,55.4,40.9,29.09,NE,45,3.8,3.8,58,0.00,,-RA,0.20,VWS V14.01,2013-04-11 20:33:00,
2013-04-11 13:38:00,55.2,39.8,29.06,NNE,22,2.7,2.7,56,0.00,,-RA,0.20,VWS V14.01,2013-04-11 20:38:00,
2013-04-11 13:43:00,55.2,38.9,29.06,WSW,248,6.0,6.0,54,0.00,,-RA,0.20,VWS V14.01,2013-04-11 20:43:00,
2013-04-11 13:48:00,56.1,39.2,29.06,SSW,202,2.9,2.9,53,0.00,,-RA,0.20,VWS V14.01,2013-04-11 20:48:00,
2013-04-11 13:53:00,55.0,37.8,29.06,ESE,112,2.0,2.0,52,0.00,,-RA,0.20,VWS V14.01,2013-04-11 20:53:00,
2013-04-11 13:58:00,56.3,39.4,29.06,WNW,292,3.8,3.8,53,0.00,,-RA,0.20,VWS V14.01,2013-04-11 20:58:00,
2013-04-11 14:03:00,57.2,40.2,29.06,South,180,5.4,5.4,53,0.00,,,0.20,VWS V14.01,2013-04-11 21:03:00,
2013-04-11 14:08:00,55.8,38.4,29.06,NW,315,2.5,2.5,52,0.00,,,0.20,VWS V14.01,2013-04-11 21:08:00,
2013-04-11 14:13:00,56.8,39.4,29.06,SSW,202,3.1,3.1,52,0.00,,,0.20,VWS V14.01,2013-04-11 21:13:00,
2013-04-11 14:18:00,58.3,39.7,29.06,NW,315,0.9,0.9,50,0.00,,,0.20,VWS V14.01,2013-04-11 21:18:00,
2013-04-11 14:23:00,58.5,40.4,29.06,NE,45,2.0,2.0,51,0.00,,,0.20,VWS V14.01,2013-04-11 21:23:00,
2013-04-11 14:28:00,58.5,38.3,29.06,WSW,248,2.7,2.7,47,0.00,,,0.20,VWS V14.01,2013-04-11 21:28:00,
2013-04-11 14:33:00,58.3,38.7,29.06,SW,225,2.2,2.2,48,0.00,,,0.20,VWS V14.01,2013-04-11 21:33:00,
2013-04-11 14:38:00,56.5,36.5,29.06,South,180,3.8,3.8,47,0.00,,,0.20,VWS V14.01,2013-04-11 21:38:00,
2013-04-11 14:43:00,55.4,35.0,29.06,NW,315,3.4,3.4,46,0.00,,,0.20,VWS V14.01,2013-04-11 21:43:00,
2013-04-11 14:48:00,54.0,33.7,29.06,NNW,338,5.6,5.6,46,0.00,,,0.20,VWS V14.01,2013-04-11 21:48:00,
2013-04-11 14:53:00,53.8,34.6,29.03,East,90,1.6,1.6,48,0.00,,,0.20,VWS V14.01,2013-04-11 21:53:00,
2013-04-11 14:58:00,54.1,34.9,29.03,ENE,68,2.5,2.5,48,0.00,,,0.20,VWS V14.01,2013-04-11 21:58:00,
2013-04-11 15:03:00,56.7,38.8,29.03,NNW,338,4.9,4.9,51,0.00,,BKN047,0.20,VWS V14.01,2013-04-11 22:03:00,
2013-04-11 15:08:00,57.9,36.7,29.06,NNW,338,4.0,4.0,45,0.00,,BKN047,0.20,VWS V14.01,2013-04-11 22:08:00,
2013-04-11 15:13:00,58.1,36.3,29.06,NNE,22,3.8,3.8,44,0.00,,BKN047,0.20,VWS V14.01,2013-04-11 22:13:00,
2013-04-11 15:18:00,56.8,35.7,29.06,NNW,338,9.6,9.6,45,0.00,,BKN047,0.20,VWS V14.01,2013-04-11 22:18:00,
2013-04-11 15:23:00,56.7,36.1,29.03,NE,45,5.8,5.8,46,0.00,,BKN047,0.20,VWS V14.01,2013-04-11 22:23:00,
2013-04-11 15:28:00,57.2,36.6,29.03,West,270,6.3,6.3,46,0.00,,BKN047,0.20,VWS V14.01,2013-04-11 22:28:00,
2013-04-11 15:33:00,56.8,35.7,29.03,SSW,202,7.4,7.4,45,0.00,,BKN047,0.20,VWS V14.01,2013-04-11 22:33:00,
2013-04-11 15:38:00,56.3,35.8,29.03,NNE,22,1.1,1.1,46,0.00,,BKN047,0.20,VWS V14.01,2013-04-11 22:38:00,
2013-04-11 15:43:00,57.7,36.0,29.03,North,0,3.8,3.8,44,0.00,,BKN047,0.20,VWS V14.01,2013-04-11 22:43:00,
2013-04-11 15:48:00,57.6,36.4,29.03,NNE,22,1.3,1.3,45,0.00,,BKN047,0.20,VWS V14.01,2013-04-11 22:48:00,
2013-04-11 15:53:00,57.2,34.3,29.00,NW,315,3.4,3.4,42,0.00,,BKN047,0.20,VWS V14.01,2013-04-11 22:53:00,
2013-04-11 15:58:00,56.7,35.0,29.00,North,0,3.8,3.8,44,0.00,,BKN047,0.20,VWS V14.01,2013-04-11 22:58:00,
2013-04-11 16:03:00,54.5,33.6,29.00,WNW,292,3.8,3.8,45,0.00,,BKN050,0.20,VWS V14.01,2013-04-11 23:03:00,
2013-04-11 16:08:00,55.4,34.4,29.00,WNW,292,2.5,2.5,45,0.00,,BKN050,0.20,VWS V14.01,2013-04-11 23:08:00,
2013-04-11 16:13:00,54.9,33.9,29.00,NW,315,3.4,3.4,45,0.00,,BKN050,0.20,VWS V14.01,2013-04-11 23:13:00,
2013-04-11 16:18:00,55.9,34.9,29.00,North,0,3.6,3.6,45,0.00,,BKN050,0.20,VWS V14.01,2013-04-11 23:18:00,
2013-04-11 16:23:00,57.0,36.5,29.00,NE,45,2.5,2.5,46,0.00,,BKN050,0.20,VWS V14.01,2013-04-11 23:23:00,
2013-04-11 16:28:00,55.9,34.4,29.00,NNW,338,6.0,6.0,44,0.00,,BKN050,0.20,VWS V14.01,2013-04-11 23:28:00,
2013-04-11 16:33:00,56.8,35.7,29.00,NNE,22,2.0,2.0,45,0.00,,BKN050,0.20,VWS V14.01,2013-04-11 23:33:00,
2013-04-11 16:38:00,57.0,34.8,28.97,SSW,202,2.0,2.0,43,0.00,,BKN050,0.20,VWS V14.01,2013-04-11 23:38:00,
2013-04-11 16:43:00,56.1,34.0,28.97,South,180,4.0,4.0,43,0.00,,BKN050,0.20,VWS V14.01,2013-04-11 23:43:00,
2013-04-11 16:48:00,56.8,34.6,28.97,NW,315,2.5,2.5,43,0.00,,BKN050,0.20,VWS V14.01,2013-04-11 23:48:00,
2013-04-11 16:53:00,57.0,35.3,28.97,East,90,1.1,1.1,44,0.00,,BKN050,0.20,VWS V14.01,2013-04-11 23:53:00,
2013-04-11 16:58:00,57.0,35.9,28.97,SSE,158,1.1,1.1,45,0.00,,BKN050,0.20,VWS V14.01,2013-04-11 23:58:00,
2013-04-11 17:03:00,56.1,32.8,28.97,West,270,2.9,2.9,41,0.00,,BKN050,0.20,VWS V14.01,2013-04-12 00:03:00,
2013-04-11 17:08:00,55.6,32.3,28.97,WNW,292,7.2,7.2,41,0.00,,BKN050,0.20,VWS V14.01,2013-04-12 00:08:00,
2013-04-11 17:13:00,55.8,32.4,28.97,SSE,158,2.0,2.0,41,0.00,,BKN050,0.20,VWS V14.01,2013-04-12 00:13:00,
2013-04-11 17:18:00,54.7,31.5,28.97,NW,315,2.0,2.0,41,0.00,,BKN050,0.20,VWS V14.01,2013-04-12 00:18:00,
2013-04-11 17:23:00,54.1,31.6,28.97,WNW,292,5.4,5.4,42,0.00,,BKN050,0.20,VWS V14.01,2013-04-12 00:23:00,
2013-04-11 17:28:00,54.0,31.4,28.97,ENE,68,3.6,3.6,42,0.00,,BKN050,0.20,VWS V14.01,2013-04-12 00:28:00,
2013-04-11 17:33:00,54.9,32.8,28.97,WNW,292,7.6,7.6,43,0.00,,SCT050,0.20,VWS V14.01,2013-04-12 00:33:00,
2013-04-11 17:38:00,53.8,31.8,28.97,South,180,7.8,7.8,43,0.00,,SCT050,0.20,VWS V14.01,2013-04-12 00:38:00,
2013-04-11 17:43:00,54.3,31.7,28.97,NNW,338,6.0,6.0,42,0.00,,SCT050,0.20,VWS V14.01,2013-04-12 00:43:00,
2013-04-11 17:48:00,54.5,31.9,28.97,North,0,2.0,2.0,42,0.00,,SCT050,0.20,VWS V14.01,2013-04-12 00:48:00,
2013-04-11 17:53:00,54.1,31.6,28.97,NNW,338,3.4,3.4,42,0.00,,SCT050,0.20,VWS V14.01,2013-04-12 00:53:00,
2013-04-11 17:58:00,54.5,32.5,28.97,South,180,3.4,3.4,43,0.00,,SCT050,0.20,VWS V14.01,2013-04-12 00:58:00,
2013-04-11 18:03:00,54.0,31.4,28.97,WSW,248,3.8,3.8,42,0.00,,FEW050,0.20,VWS V14.01,2013-04-12 01:03:00,
2013-04-11 18:08:00,53.4,30.9,28.97,SSE,158,2.9,2.9,42,0.00,,FEW050,0.20,VWS V14.01,2013-04-12 01:08:00,
2013-04-11 18:13:00,53.1,30.6,28.97,SSW,202,4.9,4.9,42,0.00,,FEW050,0.20,VWS V14.01,2013-04-12 01:13:00,
2013-04-11 18:18:00,53.4,31.5,28.97,SW,225,2.0,2.0,43,0.00,,FEW050,0.20,VWS V14.01,2013-04-12 01:18:00,
2013-04-11 18:23:00,54.1,32.2,28.97,SW,225,2.0,2.0,43,0.00,,FEW050,0.20,VWS V14.01,2013-04-12 01:23:00,
2013-04-11 18:28:00,53.6,31.1,28.97,WNW,292,1.3,1.3,42,0.00,,FEW050,0.20,VWS V14.01,2013-04-12 01:28:00,
2013-04-11 18:33:00,53.4,31.5,28.97,SSW,202,6.0,6.0,43,0.00,,FEW050,0.20,VWS V14.01,2013-04-12 01:33:00,
2013-04-11 18:38:00,53.2,30.8,28.94,NNW,338,3.6,3.6,42,0.00,,FEW050,0.20,VWS V14.01,2013-04-12 01:38:00,
2013-04-11 18:43:00,52.7,30.3,28.94,SSW,202,0.9,0.9,42,0.00,,FEW050,0.20,VWS V14.01,2013-04-12 01:43:00,
2013-04-11 18:48:00,52.5,30.7,28.94,SSW,202,3.4,3.4,43,0.00,,FEW050,0.20,VWS V14.01,2013-04-12 01:48:00,
2013-04-11 18:53:00,52.0,30.2,28.94,SE,135,2.5,2.5,43,0.00,,FEW050,0.20,VWS V14.01,2013-04-12 01:53:00,
2013-04-11 18:58:00,51.6,29.9,28.94,SSE,158,3.4,3.4,43,0.00,,FEW050,0.20,VWS V14.01,2013-04-12 01:58:00,
2013-04-11 19:03:00,51.3,30.1,28.94,SSW,202,3.1,3.1,44,0.00,,CLR,0.20,VWS V14.01,2013-04-12 02:03:00,
2013-04-11 19:08:00,50.9,30.3,28.94,SSW,202,4.3,4.3,45,0.00,,CLR,0.20,VWS V14.01,2013-04-12 02:08:00,
2013-04-11 19:13:00,50.7,30.7,28.94,NNW,338,1.3,1.3,46,0.00,,CLR,0.20,VWS V14.01,2013-04-12 02:13:00,
2013-04-11 19:18:00,50.4,30.9,28.94,SSW,202,2.0,2.0,47,0.00,,CLR,0.20,VWS V14.01,2013-04-12 02:18:00,
2013-04-11 19:23:00,50.0,30.6,28.97,SW,225,2.9,2.9,47,0.00,,CLR,0.20,VWS V14.01,2013-04-12 02:23:00,
2013-04-11 19:28:00,49.5,31.1,28.97,SW,225,1.3,1.3,49,0.00,,CLR,0.20,VWS V14.01,2013-04-12 02:28:00,
2013-04-11 19:33:00,49.1,30.8,28.97,South,180,0.9,0.9,49,0.00,,CLR,0.20,VWS V14.01,2013-04-12 02:33:00,
2013-04-11 19:38:00,48.6,30.8,28.97,SSE,158,0.0,0.0,50,0.00,,CLR,0.20,VWS V14.01,2013-04-12 02:38:00,
2013-04-11 19:43:00,47.8,30.6,28.97,WNW,292,0.0,0.0,51,0.00,,CLR,0.20,VWS V14.01,2013-04-12 02:43:00,
2013-04-11 19:48:00,46.9,32.1,28.97,SW,225,0.0,0.0,56,0.00,,CLR,0.20,VWS V14.01,2013-04-12 02:48:00,
2013-04-11 19:53:00,46.0,33.8,28.97,WSW,248,0.0,0.0,62,0.00,,CLR,0.20,VWS V14.01,2013-04-12 02:53:00,
2013-04-11 19:58:00,45.3,33.5,28.97,WSW,248,0.0,0.0,63,0.00,,CLR,0.20,VWS V14.01,2013-04-12 02:58:00,
2013-04-11 20:02:00,44.4,33.4,28.97,SSW,202,0.0,0.0,65,0.00,,CLR,0.20,VWS V14.01,2013-04-12 03:02:00,
2013-04-11 20:07:00,44.1,33.8,28.97,WSW,248,0.0,0.0,67,0.00,,CLR,0.20,VWS V14.01,2013-04-12 03:07:00,
2013-04-11 20:12:00,43.0,33.2,28.97,SSW,202,0.0,0.0,68,0.00,,CLR,0.20,VWS V14.01,2013-04-12 03:12:00,
2013-04-11 20:17:00,42.3,32.8,28.97,West,270,0.0,0.0,69,0.00,,CLR,0.20,VWS V14.01,2013-04-12 03:17:00,
2013-04-11 20:22:00,41.5,32.8,28.97,SSW,202,2.0,2.0,71,0.00,,CLR,0.20,VWS V14.01,2013-04-12 03:22:00,
2013-04-11 20:27:00,41.0,33.0,28.97,SSE,158,0.0,0.0,73,0.00,,CLR,0.20,VWS V14.01,2013-04-12 03:27:00,
2013-04-11 20:32:00,40.5,32.5,28.97,WSW,248,2.0,2.0,73,0.00,,CLR,0.20,VWS V14.01,2013-04-12 03:32:00,
2013-04-11 20:37:00,40.1,32.8,28.97,SSE,158,0.0,0.0,75,0.00,,CLR,0.20,VWS V14.01,2013-04-12 03:37:00,
2013-04-11 20:42:00,39.7,32.5,28.97,SSE,158,0.0,0.0,75,0.00,,CLR,0.20,VWS V14.01,2013-04-12 03:42:00,
2013-04-11 20:47:00,39.4,32.5,28.97,South,180,0.0,0.0,76,0.00,,CLR,0.20,VWS V14.01,2013-04-12 03:47:00,
2013-04-11 20:52:00,39.2,32.3,28.97,NNE,22,0.0,0.0,76,0.00,,CLR,0.20,VWS V14.01,2013-04-12 03:52:00,
2013-04-11 20:57:00,38.7,32.4,28.97,SSW,202,0.0,0.0,78,0.00,,CLR,0.20,VWS V14.01,2013-04-12 03:57:00,
2013-04-11 21:00:00,38.7,32.4,28.97,South,180,0.9,0.9,78,0.00,,CLR,0.20,VWS V14.01,2013-04-12 04:00:00,
2013-04-11 21:05:00,38.5,32.2,28.97,SSW,202,0.0,0.0,78,0.00,,CLR,0.20,VWS V14.01,2013-04-12 04:05:00,
2013-04-11 21:10:00,38.1,32.2,28.97,NNE,22,0.0,0.0,79,0.00,,CLR,0.20,VWS V14.01,2013-04-12 04:10:00,
2013-04-11 21:15:00,37.9,32.6,28.97,ESE,112,0.0,0.0,81,0.00,,CLR,0.20,VWS V14.01,2013-04-12 04:15:00,
2013-04-11 21:20:00,37.9,33.0,28.97,East,90,0.0,0.0,82,0.00,,CLR,0.20,VWS V14.01,2013-04-12 04:20:00,
2013-04-11 21:25:00,37.6,32.9,28.97,SE,135,0.0,0.0,83,0.00,,CLR,0.20,VWS V14.01,2013-04-12 04:25:00,
2013-04-11 21:30:00,37.0,32.4,28.97,West,270,1.1,1.1,83,0.00,,CLR,0.20,VWS V14.01,2013-04-12 04:30:00,
2013-04-11 21:35:00,37.0,32.7,28.97,West,270,0.0,0.0,84,0.00,,CLR,0.20,VWS V14.01,2013-04-12 04:35:00,
2013-04-11 21:40:00,36.7,32.6,28.97,NE,45,0.0,0.0,85,0.00,,CLR,0.20,VWS V14.01,2013-04-12 04:40:00,
2013-04-11 21:45:00,36.5,32.4,28.97,East,90,0.0,0.0,85,0.00,,CLR,0.20,VWS V14.01,2013-04-12 04:45:00,
2013-04-11 21:50:00,36.0,31.9,28.97,SW,225,1.3,1.3,85,0.00,,CLR,0.20,VWS V14.01,2013-04-12 04:50:00,
2013-04-11 21:55:00,35.8,31.7,28.97,SSW,202,0.0,0.0,85,0.00,,CLR,0.20,VWS V14.01,2013-04-12 04:55:00,
2013-04-11 22:00:00,35.6,31.5,28.97,SSE,158,0.0,0.0,85,0.00,,CLR,0.20,VWS V14.01,2013-04-12 05:00:00,
2013-04-11 22:05:00,35.4,31.7,28.97,West,270,0.0,0.0,86,0.00,,CLR,0.20,VWS V14.01,2013-04-12 05:05:00,
2013-04-11 22:10:00,35.2,31.8,28.97,West,270,0.0,0.0,87,0.00,,CLR,0.20,VWS V14.01,2013-04-12 05:10:00,
2013-04-11 22:15:00,34.9,31.4,28.97,WSW,248,0.0,0.0,87,0.00,,CLR,0.20,VWS V14.01,2013-04-12 05:15:00,
2013-04-11 22:20:00,34.9,31.4,28.97,SW,225,0.0,0.0,87,0.00,,CLR,0.20,VWS V14.01,2013-04-12 05:20:00,
2013-04-11 22:25:00,34.5,31.1,28.97,SSW,202,2.5,2.5,87,0.00,,CLR,0.20,VWS V14.01,2013-04-12 05:25:00,
2013-04-11 22:30:00,34.5,31.1,28.97,SE,135,0.0,0.0,87,0.00,,CLR,0.20,VWS V14.01,2013-04-12 05:30:00,
2013-04-11 22:35:00,34.3,31.2,28.97,SSW,202,0.0,0.0,88,0.00,,CLR,0.20,VWS V14.01,2013-04-12 05:35:00,
2013-04-11 22:40:00,34.2,31.0,28.97,West,270,0.0,0.0,88,0.00,,CLR,0.20,VWS V14.01,2013-04-12 05:40:00,
2013-04-11 22:45:00,34.0,30.8,28.97,ESE,112,0.0,0.0,88,0.00,,CLR,0.20,VWS V14.01,2013-04-12 05:45:00,
2013-04-11 22:50:00,34.2,31.3,28.97,SE,135,0.0,0.0,89,0.00,,CLR,0.20,VWS V14.01,2013-04-12 05:50:00,
2013-04-11 22:55:00,34.0,31.1,28.97,ESE,112,0.0,0.0,89,0.00,,CLR,0.20,VWS V14.01,2013-04-12 05:55:00,
2013-04-11 23:00:00,33.6,30.7,28.97,West,270,1.1,1.1,89,0.00,,CLR,0.20,VWS V14.01,2013-04-12 06:00:00,
2013-04-11 23:05:00,33.4,30.5,28.97,West,270,0.0,0.0,89,0.00,,CLR,0.20,VWS V14.01,2013-04-12 06:05:00,
2013-04-11 23:10:00,33.3,30.4,28.97,ENE,68,0.0,0.0,89,0.00,,CLR,0.20,VWS V14.01,2013-04-12 06:10:00,
2013-04-11 23:15:00,33.1,30.2,28.97,South,180,0.0,0.0,89,0.00,,CLR,0.20,VWS V14.01,2013-04-12 06:15:00,
2013-04-11 23:20:00,32.9,30.3,28.97,SSE,158,0.0,0.0,90,0.00,,CLR,0.20,VWS V14.01,2013-04-12 06:20:00,
2013-04-11 23:25:00,32.9,30.3,28.97,NE,45,0.0,0.0,90,0.00,,CLR,0.20,VWS V14.01,2013-04-12 06:25:00,
2013-04-11 23:30:00,32.5,29.9,28.97,WNW,292,0.0,0.0,90,0.00,,CLR,0.20,VWS V14.01,2013-04-12 06:30:00,
2013-04-11 23:35:00,32.2,29.6,28.97,West,270,0.0,0.0,90,0.00,,CLR,0.20,VWS V14.01,2013-04-12 06:35:00,
2013-04-11 23:40:00,32.2,29.6,28.97,SSE,158,0.0,0.0,90,0.00,,CLR,0.20,VWS V14.01,2013-04-12 06:40:00,
2013-04-11 23:45:00,31.8,29.2,28.97,West,270,0.0,0.0,90,0.00,,CLR,0.20,VWS V14.01,2013-04-12 06:45:00,
2013-04-11 23:50:00,31.5,28.9,28.97,SSW,202,1.1,1.1,90,0.00,,CLR,0.20,VWS V14.01,2013-04-12 06:50:00,
2013-04-11 23:54:00,31.5,28.9,28.97,NE,45,0.0,0.0,90,0.00,,CLR,0.20,VWS V14.01,2013-04-12 06:54:00,
2013-04-11 23:59:00,31.3,28.7,28.97,SW,225,0.0,0.0,90,0.00,,CLR,0.20,VWS V14.01,2013-04-12 06:59:00,